sensor_id;sensor_type;location;lat;lon;timestamp;P1;durP1;ratioP1;P2;durP2;ratioP2
52047;SDS011;46904;49.438;8.752;2023-09-12T02:38:27;5.47;;;3.35;;
52047;SDS011;46904;49.438;8.752;2023-09-12T02:40:52;6.20;;;4.40;;
52047;SDS011;46904;49.438;8.752;2023-09-12T02:43:18;7.50;;;3.80;;
52047;SDS011;46904;49.438;8.752;2023-09-12T02:45:44;8.90;;;3.42;;
52047;SDS011;46904;49.438;8.752;2023-09-12T02:48:09;10.80;;;3.55;;
52047;SDS011;46904;49.438;8.752;2023-09-12T02:50:35;7.00;;;4.05;;
52047;SDS011;46904;49.438;8.752;2023-09-12T02:53:00;7.85;;;3.88;;
52047;SDS011;46904;49.438;8.752;2023-09-12T02:55:26;5.90;;;3.58;;
52047;SDS011;46904;49.438;8.752;2023-09-12T02:57:51;5.40;;;3.55;;
52047;SDS011;46904;49.438;8.752;2023-09-12T03:00:17;8.65;;;4.28;;
52047;SDS011;46904;49.438;8.752;2023-09-12T03:02:42;5.90;;;3.63;;
52047;SDS011;46904;49.438;8.752;2023-09-12T03:05:08;7.15;;;4.18;;
52047;SDS011;46904;49.438;8.752;2023-09-12T03:07:33;6.22;;;3.85;;
52047;SDS011;46904;49.438;8.752;2023-09-12T03:09:59;6.80;;;3.78;;
52047;SDS011;46904;49.438;8.752;2023-09-12T03:12:24;7.65;;;3.95;;
52047;SDS011;46904;49.438;8.752;2023-09-12T03:14:50;8.43;;;3.42;;
52047;SDS011;46904;49.438;8.752;2023-09-12T03:17:16;9.85;;;4.30;;
52047;SDS011;46904;49.438;8.752;2023-09-12T03:19:41;6.50;;;4.05;;
52047;SDS011;46904;49.438;8.752;2023-09-12T03:22:07;5.63;;;3.28;;
52047;SDS011;46904;49.438;8.752;2023-09-12T03:24:32;6.63;;;3.97;;
52047;SDS011;46904;49.438;8.752;2023-09-12T03:27:01;7.35;;;4.13;;
52047;SDS011;46904;49.438;8.752;2023-09-12T03:29:36;6.45;;;3.88;;
52047;SDS011;46904;49.438;8.752;2023-09-12T03:32:02;4.07;;;3.25;;
52047;SDS011;46904;49.438;8.752;2023-09-12T03:34:30;5.45;;;3.75;;
52047;SDS011;46904;49.438;8.752;2023-09-12T03:36:56;8.40;;;3.70;;
52047;SDS011;46904;49.438;8.752;2023-09-12T03:39:21;7.68;;;3.92;;
52047;SDS011;46904;49.438;8.752;2023-09-12T03:41:47;10.73;;;5.15;;
52047;SDS011;46904;49.438;8.752;2023-09-12T03:44:13;8.65;;;3.60;;
52047;SDS011;46904;49.438;8.752;2023-09-12T03:46:38;10.90;;;5.75;;
52047;SDS011;46904;49.438;8.752;2023-09-12T03:49:04;5.15;;;4.25;;
52047;SDS011;46904;49.438;8.752;2023-09-12T03:51:29;6.10;;;3.72;;
52047;SDS011;46904;49.438;8.752;2023-09-12T03:53:55;7.22;;;4.03;;
52047;SDS011;46904;49.438;8.752;2023-09-12T03:56:20;7.90;;;3.95;;
52047;SDS011;46904;49.438;8.752;2023-09-12T03:58:46;10.93;;;4.10;;
52047;SDS011;46904;49.438;8.752;2023-09-12T04:01:12;8.55;;;3.72;;
52047;SDS011;46904;49.438;8.752;2023-09-12T04:03:37;6.45;;;3.97;;
52047;SDS011;46904;49.438;8.752;2023-09-12T04:06:03;7.05;;;4.22;;
52047;SDS011;46904;49.438;8.752;2023-09-12T04:08:29;8.75;;;4.38;;
52047;SDS011;46904;49.438;8.752;2023-09-12T04:10:54;9.18;;;3.97;;
52047;SDS011;46904;49.438;8.752;2023-09-12T04:13:20;6.28;;;3.78;;
52047;SDS011;46904;49.438;8.752;2023-09-12T04:15:45;8.00;;;3.85;;
52047;SDS011;46904;49.438;8.752;2023-09-12T04:18:11;4.82;;;3.72;;
52047;SDS011;46904;49.438;8.752;2023-09-12T04:20:36;13.73;;;3.85;;
52047;SDS011;46904;49.438;8.752;2023-09-12T04:23:02;6.78;;;3.72;;
52047;SDS011;46904;49.438;8.752;2023-09-12T04:25:28;8.02;;;3.95;;
52047;SDS011;46904;49.438;8.752;2023-09-12T04:27:53;6.15;;;4.18;;
52047;SDS011;46904;49.438;8.752;2023-09-12T04:30:19;5.35;;;3.78;;
52047;SDS011;46904;49.438;8.752;2023-09-12T04:32:44;10.15;;;4.00;;
52047;SDS011;46904;49.438;8.752;2023-09-12T04:35:10;7.10;;;4.47;;
52047;SDS011;46904;49.438;8.752;2023-09-12T04:37:36;8.70;;;3.90;;
52047;SDS011;46904;49.438;8.752;2023-09-12T04:40:01;5.03;;;3.90;;
52047;SDS011;46904;49.438;8.752;2023-09-12T04:42:27;5.95;;;4.97;;
52047;SDS011;46904;49.438;8.752;2023-09-12T04:44:52;4.88;;;4.05;;
52047;SDS011;46904;49.438;8.752;2023-09-12T04:47:18;5.95;;;4.47;;
52047;SDS011;46904;49.438;8.752;2023-09-12T04:49:44;5.22;;;4.00;;
52047;SDS011;46904;49.438;8.752;2023-09-12T04:52:09;5.60;;;4.10;;
52047;SDS011;46904;49.438;8.752;2023-09-12T04:54:35;8.27;;;4.10;;
52047;SDS011;46904;49.438;8.752;2023-09-12T04:57:00;4.57;;;3.83;;
52047;SDS011;46904;49.438;8.752;2023-09-12T04:59:26;8.80;;;4.35;;
52047;SDS011;46904;49.438;8.752;2023-09-12T05:01:51;6.25;;;3.60;;
52047;SDS011;46904;49.438;8.752;2023-09-12T05:04:17;5.63;;;4.15;;
52047;SDS011;46904;49.438;8.752;2023-09-12T05:06:42;6.18;;;4.20;;
52047;SDS011;46904;49.438;8.752;2023-09-12T05:09:08;5.32;;;4.00;;
52047;SDS011;46904;49.438;8.752;2023-09-12T05:11:34;8.40;;;4.95;;
52047;SDS011;46904;49.438;8.752;2023-09-12T05:13:59;8.48;;;4.40;;
52047;SDS011;46904;49.438;8.752;2023-09-12T05:16:25;9.40;;;4.78;;
52047;SDS011;46904;49.438;8.752;2023-09-12T05:18:50;5.93;;;4.57;;
52047;SDS011;46904;49.438;8.752;2023-09-12T05:21:16;7.28;;;4.57;;
52047;SDS011;46904;49.438;8.752;2023-09-12T05:23:41;8.15;;;5.00;;
52047;SDS011;46904;49.438;8.752;2023-09-12T05:26:07;5.90;;;3.80;;
52047;SDS011;46904;49.438;8.752;2023-09-12T05:28:33;9.27;;;4.43;;
52047;SDS011;46904;49.438;8.752;2023-09-12T05:30:59;7.90;;;4.82;;
52047;SDS011;46904;49.438;8.752;2023-09-12T05:33:24;8.07;;;4.32;;
52047;SDS011;46904;49.438;8.752;2023-09-12T05:35:50;8.57;;;4.47;;
52047;SDS011;46904;49.438;8.752;2023-09-12T05:38:15;10.07;;;4.53;;
52047;SDS011;46904;49.438;8.752;2023-09-12T05:40:41;7.72;;;4.35;;
52047;SDS011;46904;49.438;8.752;2023-09-12T05:43:06;6.78;;;4.18;;
52047;SDS011;46904;49.438;8.752;2023-09-12T05:45:32;8.30;;;4.85;;
52047;SDS011;46904;49.438;8.752;2023-09-12T05:48:01;8.13;;;4.15;;
52047;SDS011;46904;49.438;8.752;2023-09-12T05:50:27;6.93;;;4.55;;
52047;SDS011;46904;49.438;8.752;2023-09-12T05:52:53;7.88;;;4.97;;
52047;SDS011;46904;49.438;8.752;2023-09-12T07:46:30;7.55;;;4.32;;
52047;SDS011;46904;49.438;8.752;2023-09-12T07:49:02;5.50;;;4.07;;
52047;SDS011;46904;49.438;8.752;2023-09-12T07:51:37;5.85;;;4.18;;
52047;SDS011;46904;49.438;8.752;2023-09-12T07:54:03;8.80;;;5.10;;
52047;SDS011;46904;49.438;8.752;2023-09-12T07:56:28;7.15;;;5.10;;
52047;SDS011;46904;49.438;8.752;2023-09-12T07:58:54;9.55;;;5.13;;
52047;SDS011;46904;49.438;8.752;2023-09-12T08:01:20;11.55;;;5.82;;
52047;SDS011;46904;49.438;8.752;2023-09-12T08:04:05;8.77;;;4.93;;
52047;SDS011;46904;49.438;8.752;2023-09-12T08:06:32;9.15;;;4.97;;
52047;SDS011;46904;49.438;8.752;2023-09-12T08:08:57;6.65;;;4.97;;
52047;SDS011;46904;49.438;8.752;2023-09-12T08:11:26;7.75;;;4.75;;
52047;SDS011;46904;49.438;8.752;2023-09-12T08:14:00;13.10;;;4.78;;
52047;SDS011;46904;49.438;8.752;2023-09-12T08:16:25;9.30;;;5.22;;
52047;SDS011;46904;49.438;8.752;2023-09-12T08:18:51;17.77;;;5.72;;
52047;SDS011;46904;49.438;8.752;2023-09-12T08:21:17;7.53;;;5.32;;
52047;SDS011;46904;49.438;8.752;2023-09-12T08:23:43;8.52;;;4.55;;
52047;SDS011;46904;49.438;8.752;2023-09-12T08:26:10;5.25;;;4.32;;
52047;SDS011;46904;49.438;8.752;2023-09-12T08:28:35;8.27;;;5.32;;
52047;SDS011;46904;49.438;8.752;2023-09-12T08:31:01;11.15;;;4.70;;
52047;SDS011;46904;49.438;8.752;2023-09-12T08:33:26;6.30;;;5.05;;
52047;SDS011;46904;49.438;8.752;2023-09-12T08:35:52;5.80;;;4.00;;
52047;SDS011;46904;49.438;8.752;2023-09-12T08:38:19;7.90;;;4.55;;
52047;SDS011;46904;49.438;8.752;2023-09-12T08:40:49;7.50;;;5.40;;
52047;SDS011;46904;49.438;8.752;2023-09-12T08:43:15;6.47;;;4.90;;
52047;SDS011;46904;49.438;8.752;2023-09-12T08:45:40;11.13;;;6.15;;
52047;SDS011;46904;49.438;8.752;2023-09-12T08:48:06;7.93;;;4.72;;
52047;SDS011;46904;49.438;8.752;2023-09-12T08:50:32;5.32;;;4.70;;
52047;SDS011;46904;49.438;8.752;2023-09-12T08:52:58;8.73;;;4.47;;
52047;SDS011;46904;49.438;8.752;2023-09-12T08:55:24;8.07;;;5.38;;
52047;SDS011;46904;49.438;8.752;2023-09-12T08:57:50;7.25;;;5.68;;
52047;SDS011;46904;49.438;8.752;2023-09-12T09:00:16;11.13;;;5.20;;
52047;SDS011;46904;49.438;8.752;2023-09-12T09:02:45;5.72;;;4.55;;
52047;SDS011;46904;49.438;8.752;2023-09-12T09:05:11;6.85;;;4.88;;
52047;SDS011;46904;49.438;8.752;2023-09-12T09:07:37;11.90;;;5.93;;
52047;SDS011;46904;49.438;8.752;2023-09-12T09:10:03;7.45;;;5.25;;
52047;SDS011;46904;49.438;8.752;2023-09-12T09:12:29;7.65;;;5.00;;
52047;SDS011;46904;49.438;8.752;2023-09-12T09:14:54;11.75;;;5.75;;
52047;SDS011;46904;49.438;8.752;2023-09-12T09:17:20;9.80;;;4.78;;
52047;SDS011;46904;49.438;8.752;2023-09-12T09:19:45;5.72;;;4.68;;
52047;SDS011;46904;49.438;8.752;2023-09-12T09:22:11;7.80;;;5.15;;
52047;SDS011;46904;49.438;8.752;2023-09-12T09:24:36;6.53;;;4.93;;
52047;SDS011;46904;49.438;8.752;2023-09-12T09:27:02;7.85;;;5.10;;
52047;SDS011;46904;49.438;8.752;2023-09-12T09:29:28;8.93;;;5.15;;
52047;SDS011;46904;49.438;8.752;2023-09-12T09:31:53;9.15;;;5.63;;
52047;SDS011;46904;49.438;8.752;2023-09-12T09:34:19;9.07;;;5.28;;
52047;SDS011;46904;49.438;8.752;2023-09-12T09:36:49;6.20;;;5.05;;
52047;SDS011;46904;49.438;8.752;2023-09-12T09:39:18;9.40;;;5.25;;
52047;SDS011;46904;49.438;8.752;2023-09-12T09:41:47;8.25;;;5.50;;
52047;SDS011;46904;49.438;8.752;2023-09-12T09:44:13;9.73;;;5.68;;
52047;SDS011;46904;49.438;8.752;2023-09-12T09:46:39;8.63;;;5.70;;
52047;SDS011;46904;49.438;8.752;2023-09-12T09:49:09;7.18;;;5.32;;
52047;SDS011;46904;49.438;8.752;2023-09-12T09:51:40;6.55;;;5.47;;
52047;SDS011;46904;49.438;8.752;2023-09-12T09:54:07;6.45;;;5.85;;
52047;SDS011;46904;49.438;8.752;2023-09-12T09:56:32;7.05;;;6.13;;
52047;SDS011;46904;49.438;8.752;2023-09-12T09:59:11;7.72;;;6.00;;
52047;SDS011;46904;49.438;8.752;2023-09-12T10:01:38;7.80;;;6.22;;
52047;SDS011;46904;49.438;8.752;2023-09-12T10:04:04;6.85;;;5.72;;
52047;SDS011;46904;49.438;8.752;2023-09-12T10:06:30;7.53;;;5.35;;
52047;SDS011;46904;49.438;8.752;2023-09-12T10:08:56;6.47;;;5.30;;
52047;SDS011;46904;49.438;8.752;2023-09-12T10:14:05;7.70;;;6.18;;
52047;SDS011;46904;49.438;8.752;2023-09-12T10:19:15;7.72;;;6.05;;
52047;SDS011;46904;49.438;8.752;2023-09-12T10:21:44;6.72;;;5.78;;
52047;SDS011;46904;49.438;8.752;2023-09-12T10:24:11;6.45;;;5.13;;
52047;SDS011;46904;49.438;8.752;2023-09-12T10:26:36;6.22;;;5.60;;
52047;SDS011;46904;49.438;8.752;2023-09-12T10:29:03;7.43;;;5.65;;
52047;SDS011;46904;49.438;8.752;2023-09-12T10:31:28;6.30;;;5.55;;
52047;SDS011;46904;49.438;8.752;2023-09-12T10:33:54;8.45;;;6.03;;
52047;SDS011;46904;49.438;8.752;2023-09-12T10:36:20;6.03;;;5.35;;
52047;SDS011;46904;49.438;8.752;2023-09-12T10:38:48;7.53;;;5.55;;
52047;SDS011;46904;49.438;8.752;2023-09-12T10:41:14;6.90;;;5.82;;
52047;SDS011;46904;49.438;8.752;2023-09-12T10:43:41;6.55;;;5.88;;
52047;SDS011;46904;49.438;8.752;2023-09-12T10:46:07;7.88;;;5.30;;
52047;SDS011;46904;49.438;8.752;2023-09-12T10:48:34;5.97;;;5.38;;
52047;SDS011;46904;49.438;8.752;2023-09-12T10:51:00;6.57;;;5.65;;
52047;SDS011;46904;49.438;8.752;2023-09-12T10:53:26;8.82;;;6.68;;
52047;SDS011;46904;49.438;8.752;2023-09-12T11:01:21;6.22;;;5.40;;
52047;SDS011;46904;49.438;8.752;2023-09-12T11:03:47;9.38;;;6.03;;
52047;SDS011;46904;49.438;8.752;2023-09-12T11:06:31;5.82;;;5.20;;
52047;SDS011;46904;49.438;8.752;2023-09-12T11:11:45;7.10;;;6.00;;
52047;SDS011;46904;49.438;8.752;2023-09-12T11:14:10;9.00;;;6.05;;
52047;SDS011;46904;49.438;8.752;2023-09-12T11:16:36;7.10;;;6.32;;
52047;SDS011;46904;49.438;8.752;2023-09-12T11:19:14;9.25;;;6.75;;
52047;SDS011;46904;49.438;8.752;2023-09-12T11:21:44;7.65;;;6.40;;
52047;SDS011;46904;49.438;8.752;2023-09-12T11:26:35;7.30;;;6.60;;
52047;SDS011;46904;49.438;8.752;2023-09-12T11:29:10;7.93;;;5.93;;
52047;SDS011;46904;49.438;8.752;2023-09-12T11:31:36;6.47;;;5.88;;
52047;SDS011;46904;49.438;8.752;2023-09-12T11:34:01;8.85;;;6.07;;
52047;SDS011;46904;49.438;8.752;2023-09-12T11:36:27;7.05;;;6.32;;
52047;SDS011;46904;49.438;8.752;2023-09-12T11:38:52;7.07;;;6.22;;
52047;SDS011;46904;49.438;8.752;2023-09-12T11:44:03;7.28;;;6.47;;
52047;SDS011;46904;49.438;8.752;2023-09-12T11:46:29;6.82;;;6.22;;
52047;SDS011;46904;49.438;8.752;2023-09-12T11:48:54;7.25;;;6.25;;
52047;SDS011;46904;49.438;8.752;2023-09-12T11:51:21;6.43;;;5.82;;
52047;SDS011;46904;49.438;8.752;2023-09-12T11:53:49;7.57;;;6.20;;
52047;SDS011;46904;49.438;8.752;2023-09-12T11:56:14;8.43;;;6.18;;
52047;SDS011;46904;49.438;8.752;2023-09-12T11:58:41;6.90;;;6.25;;
52047;SDS011;46904;49.438;8.752;2023-09-12T12:01:11;9.25;;;7.05;;
52047;SDS011;46904;49.438;8.752;2023-09-12T12:03:40;9.23;;;7.00;;
52047;SDS011;46904;49.438;8.752;2023-09-12T12:06:05;8.43;;;6.90;;
52047;SDS011;46904;49.438;8.752;2023-09-12T12:08:31;9.73;;;7.18;;
52047;SDS011;46904;49.438;8.752;2023-09-12T12:10:57;8.02;;;6.78;;
52047;SDS011;46904;49.438;8.752;2023-09-12T12:13:22;8.93;;;6.80;;
52047;SDS011;46904;49.438;8.752;2023-09-12T12:15:48;10.45;;;6.90;;
52047;SDS011;46904;49.438;8.752;2023-09-12T12:18:13;7.80;;;6.90;;
52047;SDS011;46904;49.438;8.752;2023-09-12T12:20:39;7.32;;;6.63;;
52047;SDS011;46904;49.438;8.752;2023-09-12T12:23:06;8.57;;;6.70;;
52047;SDS011;46904;49.438;8.752;2023-09-12T12:25:32;10.00;;;7.20;;
52047;SDS011;46904;49.438;8.752;2023-09-12T12:27:57;7.32;;;6.47;;
52047;SDS011;46904;49.438;8.752;2023-09-12T12:30:23;12.32;;;6.70;;
52047;SDS011;46904;49.438;8.752;2023-09-12T12:32:49;9.73;;;7.03;;
52047;SDS011;46904;49.438;8.752;2023-09-12T12:35:21;7.30;;;6.55;;
52047;SDS011;46904;49.438;8.752;2023-09-12T12:37:50;6.95;;;6.25;;
52047;SDS011;46904;49.438;8.752;2023-09-12T12:40:19;7.32;;;6.63;;
52047;SDS011;46904;49.438;8.752;2023-09-12T12:42:45;10.82;;;6.50;;
52047;SDS011;46904;49.438;8.752;2023-09-12T12:45:17;7.35;;;6.45;;
52047;SDS011;46904;49.438;8.752;2023-09-12T12:47:46;8.32;;;6.05;;
52047;SDS011;46904;49.438;8.752;2023-09-12T12:50:12;6.75;;;6.15;;
52047;SDS011;46904;49.438;8.752;2023-09-12T12:52:38;8.63;;;5.97;;
52047;SDS011;46904;49.438;8.752;2023-09-12T12:55:05;7.18;;;6.47;;
52047;SDS011;46904;49.438;8.752;2023-09-12T12:57:30;7.07;;;6.38;;
52047;SDS011;46904;49.438;8.752;2023-09-12T12:59:56;6.78;;;6.18;;
52047;SDS011;46904;49.438;8.752;2023-09-12T13:02:23;14.40;;;6.85;;
52047;SDS011;46904;49.438;8.752;2023-09-12T13:04:48;6.90;;;6.20;;
52047;SDS011;46904;49.438;8.752;2023-09-12T13:07:14;8.90;;;6.72;;
52047;SDS011;46904;49.438;8.752;2023-09-12T13:09:40;8.10;;;6.65;;
52047;SDS011;46904;49.438;8.752;2023-09-12T13:12:05;6.95;;;6.05;;
52047;SDS011;46904;49.438;8.752;2023-09-12T13:14:31;6.57;;;5.97;;
52047;SDS011;46904;49.438;8.752;2023-09-12T13:16:57;8.02;;;6.28;;
52047;SDS011;46904;49.438;8.752;2023-09-12T13:19:23;7.32;;;6.63;;
52047;SDS011;46904;49.438;8.752;2023-09-12T13:21:49;10.02;;;6.50;;
52047;SDS011;46904;49.438;8.752;2023-09-12T13:24:17;7.63;;;6.82;;
52047;SDS011;46904;49.438;8.752;2023-09-12T13:26:42;8.15;;;6.88;;
52047;SDS011;46904;49.438;8.752;2023-09-12T13:29:08;9.45;;;6.22;;
52047;SDS011;46904;49.438;8.752;2023-09-12T13:31:33;7.45;;;6.75;;
52047;SDS011;46904;49.438;8.752;2023-09-12T13:33:59;6.82;;;6.10;;
52047;SDS011;46904;49.438;8.752;2023-09-12T13:36:25;6.68;;;6.07;;
52047;SDS011;46904;49.438;8.752;2023-09-12T13:38:50;6.90;;;5.82;;
52047;SDS011;46904;49.438;8.752;2023-09-12T13:41:16;6.55;;;5.95;;
52047;SDS011;46904;49.438;8.752;2023-09-12T13:43:42;7.97;;;6.28;;
52047;SDS011;46904;49.438;8.752;2023-09-12T13:46:07;7.00;;;6.30;;
52047;SDS011;46904;49.438;8.752;2023-09-12T13:48:33;6.65;;;5.90;;
52047;SDS011;46904;49.438;8.752;2023-09-12T13:50:59;7.10;;;5.88;;
52047;SDS011;46904;49.438;8.752;2023-09-12T13:53:24;6.22;;;5.72;;
52047;SDS011;46904;49.438;8.752;2023-09-12T13:55:50;7.00;;;6.40;;
52047;SDS011;46904;49.438;8.752;2023-09-12T13:58:15;6.55;;;5.95;;
52047;SDS011;46904;49.438;8.752;2023-09-12T14:00:41;6.25;;;5.75;;
52047;SDS011;46904;49.438;8.752;2023-09-12T14:03:06;6.30;;;5.70;;
52047;SDS011;46904;49.438;8.752;2023-09-12T14:05:32;8.13;;;6.28;;
52047;SDS011;46904;49.438;8.752;2023-09-12T14:07:58;7.03;;;6.32;;
52047;SDS011;46904;49.438;8.752;2023-09-12T14:10:23;9.05;;;5.88;;
52047;SDS011;46904;49.438;8.752;2023-09-12T14:12:49;6.10;;;5.50;;
52047;SDS011;46904;49.438;8.752;2023-09-12T14:15:14;6.18;;;5.68;;
52047;SDS011;46904;49.438;8.752;2023-09-12T14:17:41;7.68;;;5.80;;
52047;SDS011;46904;49.438;8.752;2023-09-12T14:20:07;6.35;;;5.72;;
52047;SDS011;46904;49.438;8.752;2023-09-12T14:22:32;9.02;;;6.07;;
52047;SDS011;46904;49.438;8.752;2023-09-12T14:24:58;7.07;;;6.38;;
52047;SDS011;46904;49.438;8.752;2023-09-12T14:27:23;8.25;;;5.65;;
52047;SDS011;46904;49.438;8.752;2023-09-12T14:29:49;8.13;;;5.90;;
52047;SDS011;46904;49.438;8.752;2023-09-12T14:32:15;6.05;;;5.55;;
52047;SDS011;46904;49.438;8.752;2023-09-12T14:34:40;8.00;;;5.95;;
52047;SDS011;46904;49.438;8.752;2023-09-12T14:37:06;6.18;;;5.55;;
52047;SDS011;46904;49.438;8.752;2023-09-12T14:39:31;8.32;;;5.45;;
52047;SDS011;46904;49.438;8.752;2023-09-12T14:41:57;6.43;;;5.82;;
52047;SDS011;46904;49.438;8.752;2023-09-12T14:44:23;7.18;;;5.60;;
52047;SDS011;46904;49.438;8.752;2023-09-12T14:46:49;12.68;;;6.85;;
52047;SDS011;46904;49.438;8.752;2023-09-12T14:49:14;7.10;;;6.22;;
52047;SDS011;46904;49.438;8.752;2023-09-12T14:51:40;6.57;;;5.75;;
52047;SDS011;46904;49.438;8.752;2023-09-12T14:54:06;7.55;;;5.07;;
52047;SDS011;46904;49.438;8.752;2023-09-12T14:56:32;6.45;;;5.70;;
52047;SDS011;46904;49.438;8.752;2023-09-12T14:58:58;5.97;;;5.47;;
52047;SDS011;46904;49.438;8.752;2023-09-12T15:01:24;7.47;;;5.47;;
52047;SDS011;46904;49.438;8.752;2023-09-12T15:03:50;7.07;;;6.40;;
52047;SDS011;46904;49.438;8.752;2023-09-12T15:06:15;6.85;;;6.15;;
52047;SDS011;46904;49.438;8.752;2023-09-12T15:08:41;9.40;;;5.57;;
52047;SDS011;46904;49.438;8.752;2023-09-12T15:11:07;8.07;;;5.85;;
52047;SDS011;46904;49.438;8.752;2023-09-12T15:13:33;6.00;;;5.50;;
52047;SDS011;46904;49.438;8.752;2023-09-12T15:15:58;6.50;;;5.88;;
52047;SDS011;46904;49.438;8.752;2023-09-12T15:18:24;6.20;;;5.50;;
52047;SDS011;46904;49.438;8.752;2023-09-12T15:20:51;6.35;;;5.75;;
52047;SDS011;46904;49.438;8.752;2023-09-12T15:23:17;6.63;;;5.95;;
52047;SDS011;46904;49.438;8.752;2023-09-12T15:25:42;6.03;;;5.38;;
52047;SDS011;46904;49.438;8.752;2023-09-12T15:28:08;6.03;;;5.43;;
52047;SDS011;46904;49.438;8.752;2023-09-12T15:30:34;9.63;;;5.63;;
52047;SDS011;46904;49.438;8.752;2023-09-12T15:32:59;5.72;;;5.22;;
52047;SDS011;46904;49.438;8.752;2023-09-12T15:35:25;6.00;;;5.40;;
52047;SDS011;46904;49.438;8.752;2023-09-12T15:37:50;6.15;;;5.63;;
52047;SDS011;46904;49.438;8.752;2023-09-12T15:40:16;6.32;;;5.75;;
52047;SDS011;46904;49.438;8.752;2023-09-12T15:42:41;6.38;;;5.50;;
52047;SDS011;46904;49.438;8.752;2023-09-12T15:45:07;5.97;;;5.47;;
52047;SDS011;46904;49.438;8.752;2023-09-12T15:47:32;7.68;;;5.72;;
52047;SDS011;46904;49.438;8.752;2023-09-12T15:49:58;9.18;;;5.57;;
52047;SDS011;46904;49.438;8.752;2023-09-12T15:52:24;6.93;;;6.22;;
52047;SDS011;46904;49.438;8.752;2023-09-12T15:54:49;6.15;;;5.65;;
52047;SDS011;46904;49.438;8.752;2023-09-12T15:57:15;6.93;;;6.13;;
52047;SDS011;46904;49.438;8.752;2023-09-12T15:59:40;8.00;;;6.03;;
52047;SDS011;46904;49.438;8.752;2023-09-12T16:02:06;6.65;;;5.80;;
52047;SDS011;46904;49.438;8.752;2023-09-12T16:04:31;6.90;;;6.20;;
52047;SDS011;46904;49.438;8.752;2023-09-12T16:06:57;7.82;;;5.32;;
52047;SDS011;46904;49.438;8.752;2023-09-12T16:09:22;7.50;;;6.20;;
52047;SDS011;46904;49.438;8.752;2023-09-12T16:11:48;6.45;;;5.85;;
52047;SDS011;46904;49.438;8.752;2023-09-12T16:14:14;7.00;;;6.40;;
52047;SDS011;46904;49.438;8.752;2023-09-12T16:16:40;6.13;;;5.53;;
52047;SDS011;46904;49.438;8.752;2023-09-12T16:19:05;6.65;;;6.00;;
52047;SDS011;46904;49.438;8.752;2023-09-12T16:21:31;7.90;;;7.20;;
52047;SDS011;46904;49.438;8.752;2023-09-12T16:23:58;7.18;;;6.47;;
52047;SDS011;46904;49.438;8.752;2023-09-12T16:26:23;7.20;;;6.50;;
52047;SDS011;46904;49.438;8.752;2023-09-12T16:28:49;6.90;;;6.30;;
52047;SDS011;46904;49.438;8.752;2023-09-12T16:31:14;7.80;;;6.20;;
52047;SDS011;46904;49.438;8.752;2023-09-12T16:33:40;6.30;;;5.70;;
52047;SDS011;46904;49.438;8.752;2023-09-12T16:36:06;6.43;;;5.60;;
52047;SDS011;46904;49.438;8.752;2023-09-12T16:38:31;7.38;;;6.60;;
52047;SDS011;46904;49.438;8.752;2023-09-12T16:40:57;9.00;;;6.60;;
52047;SDS011;46904;49.438;8.752;2023-09-12T16:43:23;7.97;;;6.80;;
52047;SDS011;46904;49.438;8.752;2023-09-12T16:45:49;7.63;;;6.20;;
52047;SDS011;46904;49.438;8.752;2023-09-12T16:48:15;9.05;;;6.20;;
52047;SDS011;46904;49.438;8.752;2023-09-12T16:50:40;7.40;;;6.45;;
52047;SDS011;46904;49.438;8.752;2023-09-12T16:53:06;6.05;;;5.55;;
52047;SDS011;46904;49.438;8.752;2023-09-12T16:55:31;7.00;;;6.30;;
52047;SDS011;46904;49.438;8.752;2023-09-12T16:57:57;6.68;;;6.05;;
52047;SDS011;46904;49.438;8.752;2023-09-12T17:00:23;7.25;;;6.53;;
52047;SDS011;46904;49.438;8.752;2023-09-12T17:02:49;7.05;;;6.15;;
52047;SDS011;46904;49.438;8.752;2023-09-12T17:05:15;9.10;;;6.97;;
52047;SDS011;46904;49.438;8.752;2023-09-12T17:07:41;7.60;;;6.60;;
52047;SDS011;46904;49.438;8.752;2023-09-12T17:10:07;6.65;;;6.05;;
52047;SDS011;46904;49.438;8.752;2023-09-12T17:12:32;11.90;;;6.85;;
52047;SDS011;46904;49.438;8.752;2023-09-12T17:14:58;6.88;;;6.22;;
52047;SDS011;46904;49.438;8.752;2023-09-12T17:17:23;7.07;;;6.47;;
52047;SDS011;46904;49.438;8.752;2023-09-12T17:19:49;6.72;;;5.75;;
52047;SDS011;46904;49.438;8.752;2023-09-12T17:22:15;6.63;;;5.97;;
52047;SDS011;46904;49.438;8.752;2023-09-12T17:24:41;8.93;;;5.90;;
52047;SDS011;46904;49.438;8.752;2023-09-12T17:27:06;7.18;;;6.32;;
52047;SDS011;46904;49.438;8.752;2023-09-12T17:29:32;8.00;;;6.35;;
52047;SDS011;46904;49.438;8.752;2023-09-12T17:32:01;9.00;;;6.55;;
52047;SDS011;46904;49.438;8.752;2023-09-12T17:34:42;6.90;;;5.72;;
52047;SDS011;46904;49.438;8.752;2023-09-12T17:37:09;8.90;;;7.90;;
52047;SDS011;46904;49.438;8.752;2023-09-12T17:39:35;10.90;;;8.43;;
52047;SDS011;46904;49.438;8.752;2023-09-12T17:42:00;10.95;;;7.47;;
52047;SDS011;46904;49.438;8.752;2023-09-12T17:44:26;8.57;;;6.70;;
52047;SDS011;46904;49.438;8.752;2023-09-12T17:46:54;6.70;;;6.10;;
52047;SDS011;46904;49.438;8.752;2023-09-12T17:49:20;9.10;;;6.00;;
52047;SDS011;46904;49.438;8.752;2023-09-12T17:51:55;10.43;;;6.70;;
52047;SDS011;46904;49.438;8.752;2023-09-12T17:54:23;7.30;;;6.60;;
52047;SDS011;46904;49.438;8.752;2023-09-12T17:56:56;7.13;;;6.43;;
52047;SDS011;46904;49.438;8.752;2023-09-12T17:59:21;9.30;;;6.47;;
52047;SDS011;46904;49.438;8.752;2023-09-12T18:01:47;8.13;;;6.32;;
52047;SDS011;46904;49.438;8.752;2023-09-12T18:04:18;8.05;;;6.13;;
52047;SDS011;46904;49.438;8.752;2023-09-12T18:06:44;7.15;;;5.82;;
52047;SDS011;46904;49.438;8.752;2023-09-12T18:09:10;7.28;;;6.57;;
52047;SDS011;46904;49.438;8.752;2023-09-12T18:11:35;8.73;;;5.75;;
52047;SDS011;46904;49.438;8.752;2023-09-12T18:14:10;7.05;;;6.28;;
52047;SDS011;46904;49.438;8.752;2023-09-12T18:16:35;5.90;;;5.30;;
52047;SDS011;46904;49.438;8.752;2023-09-12T18:21:50;6.40;;;5.65;;
52047;SDS011;46904;49.438;8.752;2023-09-12T18:24:19;7.63;;;6.67;;
52047;SDS011;46904;49.438;8.752;2023-09-12T18:26:44;8.43;;;6.40;;
52047;SDS011;46904;49.438;8.752;2023-09-12T18:29:10;6.60;;;5.53;;
52047;SDS011;46904;49.438;8.752;2023-09-12T18:31:35;13.73;;;6.07;;
52047;SDS011;46904;49.438;8.752;2023-09-12T18:34:06;10.30;;;6.20;;
52047;SDS011;46904;49.438;8.752;2023-09-12T18:36:32;7.00;;;6.28;;
52047;SDS011;46904;49.438;8.752;2023-09-12T18:38:57;6.85;;;6.13;;
52047;SDS011;46904;49.438;8.752;2023-09-12T18:41:32;6.38;;;5.78;;
52047;SDS011;46904;49.438;8.752;2023-09-12T18:44:01;7.03;;;6.32;;
52047;SDS011;46904;49.438;8.752;2023-09-12T18:46:26;11.32;;;6.13;;
52047;SDS011;46904;49.438;8.752;2023-09-12T18:48:55;7.35;;;6.15;;
52047;SDS011;46904;49.438;8.752;2023-09-12T18:51:20;9.23;;;6.70;;
52047;SDS011;46904;49.438;8.752;2023-09-12T18:53:49;7.45;;;6.03;;
52047;SDS011;46904;49.438;8.752;2023-09-12T18:56:20;7.00;;;6.25;;
52047;SDS011;46904;49.438;8.752;2023-09-12T18:58:46;9.93;;;6.20;;
52047;SDS011;46904;49.438;8.752;2023-09-12T19:01:11;9.35;;;5.97;;
52047;SDS011;46904;49.438;8.752;2023-09-12T19:03:37;8.32;;;6.70;;
52047;SDS011;46904;49.438;8.752;2023-09-12T19:06:05;6.70;;;6.00;;
52047;SDS011;46904;49.438;8.752;2023-09-12T19:08:34;10.38;;;6.53;;
52047;SDS011;46904;49.438;8.752;2023-09-12T19:11:00;6.70;;;6.03;;
52047;SDS011;46904;49.438;8.752;2023-09-12T19:13:28;8.07;;;5.97;;
52047;SDS011;46904;49.438;8.752;2023-09-12T19:15:54;9.57;;;5.93;;
52047;SDS011;46904;49.438;8.752;2023-09-12T19:18:22;9.52;;;6.72;;
52047;SDS011;46904;49.438;8.752;2023-09-12T19:20:57;9.67;;;6.10;;
52047;SDS011;46904;49.438;8.752;2023-09-12T19:23:30;7.78;;;5.85;;
52047;SDS011;46904;49.438;8.752;2023-09-12T19:25:56;8.30;;;7.03;;
52047;SDS011;46904;49.438;8.752;2023-09-12T19:28:21;10.25;;;6.30;;
52047;SDS011;46904;49.438;8.752;2023-09-12T19:30:50;6.68;;;6.07;;